sensor_id;sensor_type;location;lat;lon;timestamp;P1;durP1;ratioP1;P2;durP2;ratioP2
27642;SDS011;15053;48.618;10.024;2024-03-17T00:02:10;10.75;;;7.57;;
27642;SDS011;15053;48.618;10.024;2024-03-17T00:04:36;17.35;;;8.45;;
27642;SDS011;15053;48.618;10.024;2024-03-17T00:07:02;14.73;;;8.52;;
27642;SDS011;15053;48.618;10.024;2024-03-17T00:09:27;12.23;;;8.80;;
27642;SDS011;15053;48.618;10.024;2024-03-17T00:11:54;16.27;;;8.50;;
27642;SDS011;15053;48.618;10.024;2024-03-17T00:14:21;11.63;;;7.80;;
27642;SDS011;15053;48.618;10.024;2024-03-17T00:16:47;15.85;;;8.05;;
27642;SDS011;15053;48.618;10.024;2024-03-17T00:19:14;15.00;;;8.68;;
27642;SDS011;15053;48.618;10.024;2024-03-17T00:21:40;11.15;;;7.45;;
27642;SDS011;15053;48.618;10.024;2024-03-17T00:24:05;13.68;;;8.23;;
27642;SDS011;15053;48.618;10.024;2024-03-17T00:26:31;13.95;;;7.18;;
27642;SDS011;15053;48.618;10.024;2024-03-17T00:28:56;9.93;;;6.47;;
27642;SDS011;15053;48.618;10.024;2024-03-17T00:31:22;10.07;;;6.15;;
27642;SDS011;15053;48.618;10.024;2024-03-17T00:33:51;8.70;;;5.95;;
27642;SDS011;15053;48.618;10.024;2024-03-17T00:36:17;11.95;;;6.47;;
27642;SDS011;15053;48.618;10.024;2024-03-17T00:38:43;9.75;;;6.18;;
27642;SDS011;15053;48.618;10.024;2024-03-17T00:41:09;10.05;;;5.85;;
27642;SDS011;15053;48.618;10.024;2024-03-17T00:43:34;10.27;;;6.07;;
27642;SDS011;15053;48.618;10.024;2024-03-17T00:46:00;11.65;;;6.30;;
27642;SDS011;15053;48.618;10.024;2024-03-17T00:48:25;13.38;;;6.53;;
27642;SDS011;15053;48.618;10.024;2024-03-17T00:50:57;13.43;;;6.70;;
27642;SDS011;15053;48.618;10.024;2024-03-17T00:53:24;9.68;;;6.10;;
27642;SDS011;15053;48.618;10.024;2024-03-17T00:55:55;8.82;;;5.72;;
27642;SDS011;15053;48.618;10.024;2024-03-17T00:58:26;9.60;;;5.93;;
27642;SDS011;15053;48.618;10.024;2024-03-17T01:00:51;10.73;;;6.20;;
27642;SDS011;15053;48.618;10.024;2024-03-17T01:03:17;8.45;;;6.20;;
27642;SDS011;15053;48.618;10.024;2024-03-17T01:05:43;10.00;;;6.10;;
27642;SDS011;15053;48.618;10.024;2024-03-17T01:08:10;11.00;;;6.03;;
27642;SDS011;15053;48.618;10.024;2024-03-17T01:10:42;9.05;;;6.82;;
27642;SDS011;15053;48.618;10.024;2024-03-17T01:13:11;10.13;;;6.38;;
27642;SDS011;15053;48.618;10.024;2024-03-17T01:15:37;8.57;;;5.65;;
27642;SDS011;15053;48.618;10.024;2024-03-17T01:18:03;15.48;;;6.05;;
27642;SDS011;15053;48.618;10.024;2024-03-17T01:20:30;10.48;;;6.15;;
27642;SDS011;15053;48.618;10.024;2024-03-17T01:22:56;9.88;;;6.65;;
27642;SDS011;15053;48.618;10.024;2024-03-17T01:25:22;10.82;;;7.05;;
27642;SDS011;15053;48.618;10.024;2024-03-17T01:27:48;9.98;;;6.22;;
27642;SDS011;15053;48.618;10.024;2024-03-17T01:30:13;11.85;;;6.03;;
27642;SDS011;15053;48.618;10.024;2024-03-17T01:32:39;10.70;;;5.90;;
27642;SDS011;15053;48.618;10.024;2024-03-17T01:35:05;8.35;;;5.68;;
27642;SDS011;15053;48.618;10.024;2024-03-17T01:37:33;11.25;;;5.82;;
27642;SDS011;15053;48.618;10.024;2024-03-17T01:39:59;10.10;;;5.90;;
27642;SDS011;15053;48.618;10.024;2024-03-17T01:42:25;17.00;;;7.10;;
27642;SDS011;15053;48.618;10.024;2024-03-17T01:44:50;10.18;;;6.35;;
27642;SDS011;15053;48.618;10.024;2024-03-17T01:47:16;10.05;;;6.07;;
27642;SDS011;15053;48.618;10.024;2024-03-17T01:49:45;12.60;;;6.72;;
27642;SDS011;15053;48.618;10.024;2024-03-17T01:52:16;12.80;;;6.32;;
27642;SDS011;15053;48.618;10.024;2024-03-17T01:54:42;8.95;;;6.38;;
27642;SDS011;15053;48.618;10.024;2024-03-17T01:57:09;9.70;;;6.07;;
27642;SDS011;15053;48.618;10.024;2024-03-17T01:59:36;10.23;;;5.97;;
27642;SDS011;15053;48.618;10.024;2024-03-17T02:02:02;11.85;;;6.15;;
27642;SDS011;15053;48.618;10.024;2024-03-17T02:04:27;13.85;;;6.28;;
27642;SDS011;15053;48.618;10.024;2024-03-17T02:06:53;9.95;;;6.13;;
27642;SDS011;15053;48.618;10.024;2024-03-17T02:09:19;10.35;;;5.90;;
27642;SDS011;15053;48.618;10.024;2024-03-17T02:11:47;9.68;;;5.97;;
27642;SDS011;15053;48.618;10.024;2024-03-17T02:14:13;8.50;;;6.07;;
27642;SDS011;15053;48.618;10.024;2024-03-17T02:16:43;11.23;;;6.43;;
27642;SDS011;15053;48.618;10.024;2024-03-17T02:19:08;9.13;;;6.22;;
27642;SDS011;15053;48.618;10.024;2024-03-17T02:21:35;11.25;;;6.05;;
27642;SDS011;15053;48.618;10.024;2024-03-17T02:24:00;16.65;;;7.25;;
27642;SDS011;15053;48.618;10.024;2024-03-17T02:26:27;11.80;;;6.88;;
27642;SDS011;15053;48.618;10.024;2024-03-17T02:28:53;8.38;;;6.05;;
27642;SDS011;15053;48.618;10.024;2024-03-17T02:31:19;9.55;;;6.25;;
27642;SDS011;15053;48.618;10.024;2024-03-17T02:33:45;13.23;;;6.72;;
27642;SDS011;15053;48.618;10.024;2024-03-17T02:36:11;10.20;;;6.38;;
27642;SDS011;15053;48.618;10.024;2024-03-17T02:38:40;14.88;;;6.78;;
27642;SDS011;15053;48.618;10.024;2024-03-17T02:41:25;11.85;;;6.65;;
27642;SDS011;15053;48.618;10.024;2024-03-17T02:43:51;11.07;;;5.80;;
27642;SDS011;15053;48.618;10.024;2024-03-17T02:46:17;11.07;;;6.60;;
27642;SDS011;15053;48.618;10.024;2024-03-17T02:48:45;10.55;;;6.85;;
27642;SDS011;15053;48.618;10.024;2024-03-17T02:51:13;10.25;;;6.05;;
27642;SDS011;15053;48.618;10.024;2024-03-17T02:53:43;10.70;;;5.95;;
27642;SDS011;15053;48.618;10.024;2024-03-17T02:56:12;10.80;;;6.40;;
27642;SDS011;15053;48.618;10.024;2024-03-17T02:58:41;11.15;;;6.75;;
27642;SDS011;15053;48.618;10.024;2024-03-17T03:01:08;9.50;;;6.50;;
27642;SDS011;15053;48.618;10.024;2024-03-17T03:03:37;11.63;;;6.45;;
27642;SDS011;15053;48.618;10.024;2024-03-17T03:06:03;11.23;;;6.45;;
27642;SDS011;15053;48.618;10.024;2024-03-17T03:08:30;11.77;;;6.30;;
27642;SDS011;15053;48.618;10.024;2024-03-17T03:10:56;10.00;;;6.60;;
27642;SDS011;15053;48.618;10.024;2024-03-17T03:13:21;13.10;;;6.47;;
27642;SDS011;15053;48.618;10.024;2024-03-17T03:15:47;13.52;;;7.80;;
27642;SDS011;15053;48.618;10.024;2024-03-17T03:18:14;12.55;;;6.97;;
27642;SDS011;15053;48.618;10.024;2024-03-17T03:20:39;11.98;;;6.88;;
27642;SDS011;15053;48.618;10.024;2024-03-17T03:23:05;13.55;;;7.47;;
27642;SDS011;15053;48.618;10.024;2024-03-17T03:25:31;10.23;;;6.72;;
27642;SDS011;15053;48.618;10.024;2024-03-17T03:27:56;10.30;;;7.40;;
27642;SDS011;15053;48.618;10.024;2024-03-17T03:30:26;13.52;;;7.82;;
27642;SDS011;15053;48.618;10.024;2024-03-17T03:32:52;9.38;;;6.15;;
27642;SDS011;15053;48.618;10.024;2024-03-17T03:35:18;11.15;;;6.97;;
27642;SDS011;15053;48.618;10.024;2024-03-17T03:37:44;11.23;;;7.03;;
27642;SDS011;15053;48.618;10.024;2024-03-17T03:40:11;11.73;;;7.47;;
27642;SDS011;15053;48.618;10.024;2024-03-17T03:42:46;13.40;;;6.85;;
27642;SDS011;15053;48.618;10.024;2024-03-17T03:45:12;10.80;;;6.40;;
27642;SDS011;15053;48.618;10.024;2024-03-17T03:47:38;9.82;;;6.60;;
27642;SDS011;15053;48.618;10.024;2024-03-17T03:50:06;9.45;;;6.40;;
27642;SDS011;15053;48.618;10.024;2024-03-17T03:52:34;9.75;;;5.65;;
27642;SDS011;15053;48.618;10.024;2024-03-17T03:55:01;9.73;;;6.00;;
27642;SDS011;15053;48.618;10.024;2024-03-17T03:57:27;13.00;;;6.97;;
27642;SDS011;15053;48.618;10.024;2024-03-17T03:59:54;8.98;;;5.80;;
27642;SDS011;15053;48.618;10.024;2024-03-17T04:02:21;10.00;;;6.22;;
27642;SDS011;15053;48.618;10.024;2024-03-17T04:04:47;8.82;;;5.75;;
27642;SDS011;15053;48.618;10.024;2024-03-17T04:07:13;8.18;;;5.70;;
27642;SDS011;15053;48.618;10.024;2024-03-17T04:09:39;9.50;;;6.13;;
27642;SDS011;15053;48.618;10.024;2024-03-17T04:12:04;9.18;;;6.10;;
27642;SDS011;15053;48.618;10.024;2024-03-17T04:14:30;9.90;;;6.10;;
27642;SDS011;15053;48.618;10.024;2024-03-17T04:16:56;13.93;;;6.43;;
27642;SDS011;15053;48.618;10.024;2024-03-17T04:19:22;11.27;;;7.38;;
27642;SDS011;15053;48.618;10.024;2024-03-17T04:21:47;9.02;;;7.07;;
27642;SDS011;15053;48.618;10.024;2024-03-17T04:24:13;10.13;;;6.90;;
27642;SDS011;15053;48.618;10.024;2024-03-17T04:26:38;11.05;;;7.15;;
27642;SDS011;15053;48.618;10.024;2024-03-17T04:29:04;10.25;;;6.78;;
27642;SDS011;15053;48.618;10.024;2024-03-17T04:31:31;11.35;;;7.03;;
27642;SDS011;15053;48.618;10.024;2024-03-17T04:33:57;10.82;;;7.05;;
27642;SDS011;15053;48.618;10.024;2024-03-17T04:36:22;9.85;;;7.38;;
27642;SDS011;15053;48.618;10.024;2024-03-17T04:38:48;11.52;;;8.32;;
27642;SDS011;15053;48.618;10.024;2024-03-17T04:41:17;14.23;;;8.80;;
27642;SDS011;15053;48.618;10.024;2024-03-17T04:43:43;10.57;;;7.30;;
27642;SDS011;15053;48.618;10.024;2024-03-17T04:46:09;10.73;;;7.25;;
27642;SDS011;15053;48.618;10.024;2024-03-17T04:48:37;11.75;;;8.25;;
27642;SDS011;15053;48.618;10.024;2024-03-17T04:51:03;10.98;;;7.05;;
27642;SDS011;15053;48.618;10.024;2024-03-17T04:53:29;12.50;;;7.70;;
27642;SDS011;15053;48.618;10.024;2024-03-17T04:56:04;10.90;;;6.72;;
27642;SDS011;15053;48.618;10.024;2024-03-17T04:58:31;9.60;;;6.63;;
27642;SDS011;15053;48.618;10.024;2024-03-17T05:00:57;10.50;;;6.88;;
27642;SDS011;15053;48.618;10.024;2024-03-17T05:03:28;15.35;;;6.35;;
27642;SDS011;15053;48.618;10.024;2024-03-17T05:06:03;9.02;;;6.25;;
27642;SDS011;15053;48.618;10.024;2024-03-17T05:08:31;8.90;;;6.93;;
27642;SDS011;15053;48.618;10.024;2024-03-17T05:11:01;9.52;;;6.70;;
27642;SDS011;15053;48.618;10.024;2024-03-17T05:13:31;12.82;;;6.63;;
27642;SDS011;15053;48.618;10.024;2024-03-17T05:15:57;11.80;;;6.30;;
27642;SDS011;15053;48.618;10.024;2024-03-17T05:18:23;9.57;;;6.32;;
27642;SDS011;15053;48.618;10.024;2024-03-17T05:21:01;10.88;;;6.95;;
27642;SDS011;15053;48.618;10.024;2024-03-17T05:23:29;10.35;;;6.68;;
27642;SDS011;15053;48.618;10.024;2024-03-17T05:25:56;11.25;;;6.18;;
27642;SDS011;15053;48.618;10.024;2024-03-17T05:28:23;10.60;;;6.13;;
27642;SDS011;15053;48.618;10.024;2024-03-17T05:30:53;10.88;;;6.85;;
27642;SDS011;15053;48.618;10.024;2024-03-17T05:33:20;12.32;;;7.63;;
27642;SDS011;15053;48.618;10.024;2024-03-17T05:35:53;12.02;;;6.88;;
27642;SDS011;15053;48.618;10.024;2024-03-17T05:38:20;10.38;;;6.70;;
27642;SDS011;15053;48.618;10.024;2024-03-17T05:43:23;11.98;;;6.30;;
27642;SDS011;15053;48.618;10.024;2024-03-17T05:45:53;9.85;;;5.97;;
27642;SDS011;15053;48.618;10.024;2024-03-17T05:48:19;9.20;;;6.03;;
27642;SDS011;15053;48.618;10.024;2024-03-17T05:50:46;15.88;;;7.93;;
27642;SDS011;15053;48.618;10.024;2024-03-17T05:53:11;10.45;;;7.03;;
27642;SDS011;15053;48.618;10.024;2024-03-17T05:55:37;14.00;;;6.90;;
27642;SDS011;15053;48.618;10.024;2024-03-17T05:58:03;9.98;;;6.85;;
27642;SDS011;15053;48.618;10.024;2024-03-17T06:00:29;13.23;;;7.32;;
27642;SDS011;15053;48.618;10.024;2024-03-17T06:02:58;12.63;;;7.00;;
27642;SDS011;15053;48.618;10.024;2024-03-17T06:05:25;11.23;;;7.85;;
27642;SDS011;15053;48.618;10.024;2024-03-17T06:07:51;10.43;;;7.40;;
27642;SDS011;15053;48.618;10.024;2024-03-17T06:10:16;14.68;;;8.75;;
27642;SDS011;15053;48.618;10.024;2024-03-17T06:12:42;14.63;;;8.77;;
27642;SDS011;15053;48.618;10.024;2024-03-17T06:15:07;15.32;;;9.57;;
27642;SDS011;15053;48.618;10.024;2024-03-17T06:17:33;14.48;;;8.70;;
27642;SDS011;15053;48.618;10.024;2024-03-17T06:19:59;18.27;;;9.40;;
27642;SDS011;15053;48.618;10.024;2024-03-17T06:22:28;12.90;;;8.35;;
27642;SDS011;15053;48.618;10.024;2024-03-17T06:24:53;15.98;;;8.20;;
27642;SDS011;15053;48.618;10.024;2024-03-17T06:27:19;15.60;;;8.88;;
27642;SDS011;15053;48.618;10.024;2024-03-17T06:29:44;13.77;;;9.32;;
27642;SDS011;15053;48.618;10.024;2024-03-17T06:32:11;12.98;;;8.35;;
27642;SDS011;15053;48.618;10.024;2024-03-17T06:34:36;17.23;;;8.68;;
27642;SDS011;15053;48.618;10.024;2024-03-17T06:37:02;14.75;;;8.80;;
27642;SDS011;15053;48.618;10.024;2024-03-17T06:39:28;15.68;;;10.15;;
27642;SDS011;15053;48.618;10.024;2024-03-17T06:41:53;17.75;;;11.30;;
27642;SDS011;15053;48.618;10.024;2024-03-17T06:44:19;28.02;;;11.05;;
27642;SDS011;15053;48.618;10.024;2024-03-17T06:46:46;19.95;;;11.63;;
27642;SDS011;15053;48.618;10.024;2024-03-17T06:49:12;16.77;;;10.73;;
27642;SDS011;15053;48.618;10.024;2024-03-17T06:51:38;16.40;;;10.00;;
27642;SDS011;15053;48.618;10.024;2024-03-17T06:54:03;16.10;;;10.80;;
27642;SDS011;15053;48.618;10.024;2024-03-17T06:56:29;18.40;;;11.25;;
27642;SDS011;15053;48.618;10.024;2024-03-17T06:58:55;16.77;;;10.20;;
27642;SDS011;15053;48.618;10.024;2024-03-17T07:01:20;14.65;;;9.80;;
27642;SDS011;15053;48.618;10.024;2024-03-17T07:03:46;20.15;;;10.90;;
27642;SDS011;15053;48.618;10.024;2024-03-17T07:06:11;16.35;;;10.57;;
27642;SDS011;15053;48.618;10.024;2024-03-17T07:08:37;17.20;;;9.48;;
27642;SDS011;15053;48.618;10.024;2024-03-17T07:11:03;16.27;;;9.82;;
27642;SDS011;15053;48.618;10.024;2024-03-17T07:13:31;15.77;;;10.43;;
27642;SDS011;15053;48.618;10.024;2024-03-17T07:15:59;16.48;;;10.43;;
27642;SDS011;15053;48.618;10.024;2024-03-17T07:18:26;18.63;;;10.82;;
27642;SDS011;15053;48.618;10.024;2024-03-17T07:20:52;17.70;;;10.90;;
27642;SDS011;15053;48.618;10.024;2024-03-17T07:23:18;19.40;;;11.43;;
27642;SDS011;15053;48.618;10.024;2024-03-17T07:28:19;15.88;;;10.80;;
27642;SDS011;15053;48.618;10.024;2024-03-17T07:30:51;20.50;;;11.07;;
27642;SDS011;15053;48.618;10.024;2024-03-17T07:33:19;17.85;;;10.80;;
27642;SDS011;15053;48.618;10.024;2024-03-17T07:35:46;16.63;;;10.27;;
27642;SDS011;15053;48.618;10.024;2024-03-17T07:38:15;17.55;;;11.10;;
27642;SDS011;15053;48.618;10.024;2024-03-17T07:40:41;16.90;;;9.73;;
27642;SDS011;15053;48.618;10.024;2024-03-17T07:43:07;15.93;;;9.88;;
27642;SDS011;15053;48.618;10.024;2024-03-17T07:45:33;18.35;;;10.13;;
27642;SDS011;15053;48.618;10.024;2024-03-17T07:47:59;13.38;;;8.63;;
27642;SDS011;15053;48.618;10.024;2024-03-17T07:50:24;15.68;;;10.02;;
27642;SDS011;15053;48.618;10.024;2024-03-17T07:52:50;15.48;;;9.50;;
27642;SDS011;15053;48.618;10.024;2024-03-17T07:55:15;14.90;;;9.52;;
27642;SDS011;15053;48.618;10.024;2024-03-17T07:57:41;13.95;;;8.70;;
27642;SDS011;15053;48.618;10.024;2024-03-17T08:00:07;13.90;;;8.77;;
27642;SDS011;15053;48.618;10.024;2024-03-17T08:02:47;12.90;;;8.00;;
27642;SDS011;15053;48.618;10.024;2024-03-17T08:05:13;11.82;;;7.82;;
27642;SDS011;15053;48.618;10.024;2024-03-17T08:07:39;13.05;;;7.45;;
27642;SDS011;15053;48.618;10.024;2024-03-17T08:10:05;12.25;;;8.30;;
27642;SDS011;15053;48.618;10.024;2024-03-17T08:12:31;12.02;;;7.47;;
27642;SDS011;15053;48.618;10.024;2024-03-17T08:14:56;11.70;;;7.20;;
27642;SDS011;15053;48.618;10.024;2024-03-17T08:17:22;12.15;;;6.78;;
27642;SDS011;15053;48.618;10.024;2024-03-17T08:19:47;13.35;;;7.05;;
27642;SDS011;15053;48.618;10.024;2024-03-17T08:22:13;12.30;;;6.85;;
27642;SDS011;15053;48.618;10.024;2024-03-17T08:24:39;12.85;;;7.35;;
27642;SDS011;15053;48.618;10.024;2024-03-17T08:27:05;12.27;;;6.68;;
27642;SDS011;15053;48.618;10.024;2024-03-17T08:29:31;14.82;;;7.82;;
27642;SDS011;15053;48.618;10.024;2024-03-17T08:31:58;11.63;;;7.97;;
27642;SDS011;15053;48.618;10.024;2024-03-17T08:34:24;10.23;;;6.70;;
27642;SDS011;15053;48.618;10.024;2024-03-17T08:36:50;10.60;;;6.82;;
27642;SDS011;15053;48.618;10.024;2024-03-17T08:39:15;11.27;;;6.72;;
27642;SDS011;15053;48.618;10.024;2024-03-17T08:41:41;10.70;;;6.65;;
27642;SDS011;15053;48.618;10.024;2024-03-17T08:44:06;10.20;;;6.32;;
27642;SDS011;15053;48.618;10.024;2024-03-17T08:46:33;10.80;;;6.85;;
27642;SDS011;15053;48.618;10.024;2024-03-17T08:48:58;12.00;;;6.93;;
27642;SDS011;15053;48.618;10.024;2024-03-17T08:51:24;9.70;;;7.25;;
27642;SDS011;15053;48.618;10.024;2024-03-17T08:53:49;10.05;;;6.72;;
27642;SDS011;15053;48.618;10.024;2024-03-17T08:56:15;12.95;;;7.20;;
27642;SDS011;15053;48.618;10.024;2024-03-17T08:58:40;9.23;;;7.50;;
27642;SDS011;15053;48.618;10.024;2024-03-17T09:01:06;13.70;;;6.80;;
27642;SDS011;15053;48.618;10.024;2024-03-17T09:03:33;11.95;;;6.93;;
27642;SDS011;15053;48.618;10.024;2024-03-17T09:06:01;10.43;;;7.03;;
27642;SDS011;15053;48.618;10.024;2024-03-17T09:08:26;10.65;;;6.63;;
27642;SDS011;15053;48.618;10.024;2024-03-17T09:10:53;10.68;;;6.78;;
27642;SDS011;15053;48.618;10.024;2024-03-17T09:13:20;10.77;;;6.63;;
27642;SDS011;15053;48.618;10.024;2024-03-17T09:15:50;15.27;;;7.43;;
27642;SDS011;15053;48.618;10.024;2024-03-17T09:18:22;11.35;;;7.07;;
27642;SDS011;15053;48.618;10.024;2024-03-17T09:21:01;11.43;;;7.28;;
27642;SDS011;15053;48.618;10.024;2024-03-17T09:23:29;11.18;;;6.10;;
27642;SDS011;15053;48.618;10.024;2024-03-17T09:28:21;10.35;;;6.72;;
27642;SDS011;15053;48.618;10.024;2024-03-17T09:30:47;9.18;;;6.50;;
27642;SDS011;15053;48.618;10.024;2024-03-17T09:33:13;9.80;;;6.72;;
27642;SDS011;15053;48.618;10.024;2024-03-17T09:35:38;9.18;;;6.00;;
27642;SDS011;15053;48.618;10.024;2024-03-17T09:38:04;9.13;;;6.20;;
27642;SDS011;15053;48.618;10.024;2024-03-17T09:40:30;8.73;;;6.40;;
27642;SDS011;15053;48.618;10.024;2024-03-17T09:42:56;8.85;;;6.13;;
27642;SDS011;15053;48.618;10.024;2024-03-17T09:45:21;8.27;;;6.03;;
27642;SDS011;15053;48.618;10.024;2024-03-17T09:47:50;10.68;;;7.70;;
27642;SDS011;15053;48.618;10.024;2024-03-17T09:50:16;8.88;;;7.28;;
27642;SDS011;15053;48.618;10.024;2024-03-17T09:52:44;8.45;;;6.97;;
27642;SDS011;15053;48.618;10.024;2024-03-17T09:55:19;8.95;;;7.07;;
27642;SDS011;15053;48.618;10.024;2024-03-17T09:57:45;8.32;;;6.45;;
27642;SDS011;15053;48.618;10.024;2024-03-17T10:00:13;12.50;;;7.30;;
27642;SDS011;15053;48.618;10.024;2024-03-17T10:02:43;6.88;;;5.22;;
27642;SDS011;15053;48.618;10.024;2024-03-17T10:05:20;8.57;;;6.43;;
27642;SDS011;15053;48.618;10.024;2024-03-17T10:07:48;9.05;;;6.72;;
27642;SDS011;15053;48.618;10.024;2024-03-17T10:10:17;9.88;;;6.60;;
27642;SDS011;15053;48.618;10.024;2024-03-17T10:12:51;10.05;;;7.07;;
27642;SDS011;15053;48.618;10.024;2024-03-17T10:15:17;8.65;;;6.30;;
27642;SDS011;15053;48.618;10.024;2024-03-17T10:17:44;9.20;;;6.35;;
27642;SDS011;15053;48.618;10.024;2024-03-17T10:20:14;7.18;;;5.32;;
27642;SDS011;15053;48.618;10.024;2024-03-17T10:23:03;8.20;;;6.10;;
27642;SDS011;15053;48.618;10.024;2024-03-17T10:25:34;8.45;;;6.40;;
27642;SDS011;15053;48.618;10.024;2024-03-17T10:28:04;7.63;;;5.18;;
27642;SDS011;15053;48.618;10.024;2024-03-17T10:30:36;8.63;;;6.05;;
27642;SDS011;15053;48.618;10.024;2024-03-17T10:33:02;8.10;;;5.07;;
27642;SDS011;15053;48.618;10.024;2024-03-17T10:35:33;8.77;;;5.93;;
27642;SDS011;15053;48.618;10.024;2024-03-17T10:38:01;8.48;;;6.68;;
27642;SDS011;15053;48.618;10.024;2024-03-17T10:40:28;8.10;;;5.55;;
27642;SDS011;15053;48.618;10.024;2024-03-17T10:42:55;10.18;;;6.32;;
27642;SDS011;15053;48.618;10.024;2024-03-17T10:45:22;8.05;;;5.28;;
27642;SDS011;15053;48.618;10.024;2024-03-17T10:47:49;7.05;;;4.57;;
27642;SDS011;15053;48.618;10.024;2024-03-17T10:50:24;7.53;;;4.68;;
27642;SDS011;15053;48.618;10.024;2024-03-17T10:52:50;6.72;;;4.85;;
27642;SDS011;15053;48.618;10.024;2024-03-17T10:55:20;8.23;;;5.22;;
27642;SDS011;15053;48.618;10.024;2024-03-17T10:57:51;7.80;;;5.00;;
27642;SDS011;15053;48.618;10.024;2024-03-17T11:00:22;7.88;;;5.00;;
27642;SDS011;15053;48.618;10.024;2024-03-17T11:02:48;6.25;;;4.63;;
27642;SDS011;15053;48.618;10.024;2024-03-17T11:07:45;6.15;;;5.05;;
27642;SDS011;15053;48.618;10.024;2024-03-17T11:10:14;7.25;;;5.97;;
27642;SDS011;15053;48.618;10.024;2024-03-17T11:12:42;7.80;;;5.40;;
27642;SDS011;15053;48.618;10.024;2024-03-17T11:17:48;7.22;;;5.55;;
27642;SDS011;15053;48.618;10.024;2024-03-17T11:22:57;6.95;;;5.25;;
27642;SDS011;15053;48.618;10.024;2024-03-17T11:27:53;6.57;;;4.93;;
27642;SDS011;15053;48.618;10.024;2024-03-17T11:39:01;8.18;;;5.35;;
27642;SDS011;15053;48.618;10.024;2024-03-17T11:49:41;7.50;;;5.28;;
27642;SDS011;15053;48.618;10.024;2024-03-17T11:52:09;7.70;;;5.65;;
27642;SDS011;15053;48.618;10.024;2024-03-17T11:54:40;7.90;;;5.18;;
27642;SDS011;15053;48.618;10.024;2024-03-17T11:57:09;11.15;;;5.80;;
27642;SDS011;15053;48.618;10.024;2024-03-17T11:59:37;8.13;;;5.45;;
27642;SDS011;15053;48.618;10.024;2024-03-17T12:02:09;10.20;;;6.13;;
27642;SDS011;15053;48.618;10.024;2024-03-17T12:04:45;6.63;;;5.55;;
27642;SDS011;15053;48.618;10.024;2024-03-17T12:07:15;7.57;;;5.40;;
27642;SDS011;15053;48.618;10.024;2024-03-17T12:09:42;7.40;;;5.80;;
27642;SDS011;15053;48.618;10.024;2024-03-17T12:12:12;11.30;;;5.88;;
27642;SDS011;15053;48.618;10.024;2024-03-17T12:14:42;7.68;;;5.13;;
27642;SDS011;15053;48.618;10.024;2024-03-17T12:17:11;7.53;;;5.43;;
27642;SDS011;15053;48.618;10.024;2024-03-17T12:19:39;8.05;;;5.75;;
27642;SDS011;15053;48.618;10.024;2024-03-17T12:22:05;9.40;;;5.22;;
27642;SDS011;15053;48.618;10.024;2024-03-17T12:24:32;9.32;;;5.95;;
27642;SDS011;15053;48.618;10.024;2024-03-17T12:26:59;8.68;;;5.15;;
27642;SDS011;15053;48.618;10.024;2024-03-17T12:29:31;7.75;;;5.25;;
27642;SDS011;15053;48.618;10.024;2024-03-17T12:34:35;7.55;;;5.82;;
27642;SDS011;15053;48.618;10.024;2024-03-17T12:37:01;7.63;;;4.97;;
27642;SDS011;15053;48.618;10.024;2024-03-17T12:39:28;9.20;;;5.80;;
27642;SDS011;15053;48.618;10.024;2024-03-17T12:42:08;7.78;;;5.15;;
27642;SDS011;15053;48.618;10.024;2024-03-17T12:44:39;6.97;;;5.40;;
27642;SDS011;15053;48.618;10.024;2024-03-17T12:47:15;8.38;;;5.38;;
27642;SDS011;15053;48.618;10.024;2024-03-17T12:49:46;11.98;;;5.78;;
27642;SDS011;15053;48.618;10.024;2024-03-17T12:52:20;7.25;;;5.18;;
27642;SDS011;15053;48.618;10.024;2024-03-17T12:54:56;6.65;;;5.32;;
27642;SDS011;15053;48.618;10.024;2024-03-17T12:57:41;7.05;;;5.13;;
27642;SDS011;15053;48.618;10.024;2024-03-17T13:00:25;7.20;;;4.72;;
27642;SDS011;15053;48.618;10.024;2024-03-17T13:02:57;5.07;;;4.35;;
27642;SDS011;15053;48.618;10.024;2024-03-17T13:05:36;7.00;;;4.05;;
27642;SDS011;15053;48.618;10.024;2024-03-17T13:08:02;6.72;;;4.50;;
27642;SDS011;15053;48.618;10.024;2024-03-17T13:10:29;8.05;;;4.60;;
27642;SDS011;15053;48.618;10.024;2024-03-17T13:15:24;7.13;;;4.88;;
27642;SDS011;15053;48.618;10.024;2024-03-17T13:17:50;5.60;;;4.30;;
27642;SDS011;15053;48.618;10.024;2024-03-17T13:20:16;4.93;;;3.83;;
27642;SDS011;15053;48.618;10.024;2024-03-17T13:22:42;6.53;;;4.25;;
27642;SDS011;15053;48.618;10.024;2024-03-17T13:25:22;8.27;;;4.18;;
27642;SDS011;15053;48.618;10.024;2024-03-17T13:27:51;10.02;;;4.55;;
27642;SDS011;15053;48.618;10.024;2024-03-17T13:30:19;8.00;;;4.18;;
27642;SDS011;15053;48.618;10.024;2024-03-17T13:32:49;6.70;;;3.97;;
27642;SDS011;15053;48.618;10.024;2024-03-17T13:35:22;6.45;;;3.25;;
27642;SDS011;15053;48.618;10.024;2024-03-17T13:37:49;5.30;;;3.95;;
27642;SDS011;15053;48.618;10.024;2024-03-17T13:40:15;7.55;;;3.80;;
27642;SDS011;15053;48.618;10.024;2024-03-17T13:42:44;5.95;;;3.63;;
27642;SDS011;15053;48.618;10.024;2024-03-17T13:45:14;6.82;;;3.40;;
27642;SDS011;15053;48.618;10.024;2024-03-17T13:47:40;5.10;;;3.47;;
27642;SDS011;15053;48.618;10.024;2024-03-17T13:50:07;6.57;;;4.10;;
27642;SDS011;15053;48.618;10.024;2024-03-17T13:52:36;5.55;;;3.25;;
27642;SDS011;15053;48.618;10.024;2024-03-17T13:55:03;5.28;;;3.67;;
27642;SDS011;15053;48.618;10.024;2024-03-17T13:57:34;7.30;;;4.75;;
27642;SDS011;15053;48.618;10.024;2024-03-17T14:00:00;8.32;;;4.63;;
27642;SDS011;15053;48.618;10.024;2024-03-17T14:02:26;9.50;;;5.00;;
27642;SDS011;15053;48.618;10.024;2024-03-17T14:04:51;6.72;;;4.63;;
27642;SDS011;15053;48.618;10.024;2024-03-17T14:07:17;9.20;;;5.05;;
27642;SDS011;15053;48.618;10.024;2024-03-17T14:09:42;5.88;;;4.20;;
27642;SDS011;15053;48.618;10.024;2024-03-17T14:12:08;7.78;;;4.05;;
27642;SDS011;15053;48.618;10.024;2024-03-17T14:14:34;6.18;;;4.55;;
27642;SDS011;15053;48.618;10.024;2024-03-17T14:16:59;7.15;;;3.90;;
27642;SDS011;15053;48.618;10.024;2024-03-17T14:19:25;6.07;;;4.30;;
27642;SDS011;15053;48.618;10.024;2024-03-17T14:21:51;7.95;;;5.13;;
27642;SDS011;15053;48.618;10.024;2024-03-17T14:24:16;10.07;;;5.47;;
27642;SDS011;15053;48.618;10.024;2024-03-17T14:26:42;20.48;;;13.32;;
27642;SDS011;15053;48.618;10.024;2024-03-17T14:29:08;7.38;;;5.60;;
27642;SDS011;15053;48.618;10.024;2024-03-17T14:31:33;9.20;;;4.05;;
27642;SDS011;15053;48.618;10.024;2024-03-17T14:34:02;4.80;;;3.97;;
27642;SDS011;15053;48.618;10.024;2024-03-17T14:36:30;7.13;;;5.20;;
27642;SDS011;15053;48.618;10.024;2024-03-17T14:38:59;6.32;;;3.35;;
27642;SDS011;15053;48.618;10.024;2024-03-17T14:41:31;6.40;;;4.10;;
27642;SDS011;15053;48.618;10.024;2024-03-17T14:43:57;10.73;;;4.07;;
27642;SDS011;15053;48.618;10.024;2024-03-17T14:46:23;6.95;;;3.60;;
27642;SDS011;15053;48.618;10.024;2024-03-17T14:48:49;7.57;;;4.78;;
27642;SDS011;15053;48.618;10.024;2024-03-17T14:51:19;6.82;;;3.90;;
27642;SDS011;15053;48.618;10.024;2024-03-17T14:53:46;7.70;;;3.85;;
27642;SDS011;15053;48.618;10.024;2024-03-17T14:56:19;5.82;;;3.78;;
27642;SDS011;15053;48.618;10.024;2024-03-17T14:58:44;5.90;;;4.78;;
27642;SDS011;15053;48.618;10.024;2024-03-17T15:03:41;4.38;;;3.38;;
27642;SDS011;15053;48.618;10.024;2024-03-17T15:06:09;7.80;;;3.08;;
27642;SDS011;15053;48.618;10.024;2024-03-17T15:08:35;4.28;;;2.97;;
27642;SDS011;15053;48.618;10.024;2024-03-17T15:11:01;5.10;;;3.40;;